createdAt,value
2023-02-20T00:00:23.040Z,85.15
2023-02-20T00:03:16.109Z,85.10
2023-02-20T00:05:44.292Z,84.66
2023-02-20T00:08:11.921Z,84.80
2023-02-20T00:10:40.051Z,84.54
2023-02-20T00:13:07.743Z,84.72
2023-02-20T00:15:35.140Z,82.55
2023-02-20T00:18:02.986Z,82.32
2023-02-20T00:20:32.135Z,82.60
2023-02-20T00:23:01.052Z,83.15
2023-02-20T00:25:28.434Z,82.79
2023-02-20T00:27:58.342Z,79.76
2023-02-20T00:30:25.822Z,79.51
2023-02-20T00:32:55.251Z,78.03
2023-02-20T00:35:24.761Z,78.62
2023-02-20T00:37:54.221Z,77.66
2023-02-20T00:40:25.019Z,75.42
2023-02-20T00:42:52.790Z,75.42
2023-02-20T00:45:24.622Z,74.67
2023-02-20T00:47:52.224Z,74.49
2023-02-20T00:50:21.423Z,73.48
2023-02-20T00:52:51.837Z,74.72
2023-02-20T00:55:19.248Z,74.62
2023-02-20T00:57:47.101Z,74.68
2023-02-20T01:00:24.565Z,71.49
2023-02-20T01:02:56.307Z,72.21
2023-02-20T01:05:25.321Z,74.33
2023-02-20T01:07:54.531Z,71.54
2023-02-20T01:10:21.847Z,71.58
2023-02-20T01:12:51.894Z,69.89
2023-02-20T01:15:20.242Z,70.75
2023-02-20T01:17:47.859Z,71.56
2023-02-20T01:20:19.410Z,71.93
2023-02-20T01:22:48.901Z,71.61
2023-02-20T01:25:16.596Z,72.10
2023-02-20T01:27:45.732Z,73.01
2023-02-20T01:30:15.618Z,72.74
2023-02-20T01:32:43.657Z,73.63
2023-02-20T01:35:11.010Z,71.89
2023-02-20T01:37:39.470Z,73.68
2023-02-20T01:40:21.943Z,72.20
2023-02-20T01:42:51.386Z,72.25
2023-02-20T01:45:22.417Z,72.11
2023-02-20T01:47:55.659Z,76.69
2023-02-20T01:50:37.381Z,77.11
2023-02-20T01:53:12.562Z,75.30
2023-02-20T01:55:40.655Z,76.43
2023-02-20T01:58:24.398Z,76.86
2023-02-20T02:00:52.573Z,76.91
2023-02-20T02:03:25.467Z,77.41
2023-02-20T02:06:00.165Z,75.97
2023-02-20T02:08:29.381Z,75.63
2023-02-20T02:11:02.225Z,76.85
2023-02-20T02:13:33.837Z,77.55
2023-02-20T02:16:25.469Z,76.39
2023-02-20T02:19:34.377Z,76.68
2023-02-20T02:22:22.609Z,75.01
2023-02-20T02:25:24.453Z,76.44
2023-02-20T02:28:05.552Z,74.25
2023-02-20T02:31:05.491Z,77.33
2023-02-20T02:34:05.566Z,75.12
2023-02-20T02:36:48.262Z,76.79
2023-02-20T02:39:39.012Z,76.10
2023-02-20T02:42:43.612Z,74.90
2023-02-20T02:45:50.784Z,75.42
2023-02-20T02:48:25.687Z,74.98
2023-02-20T02:50:54.843Z,75.49
2023-02-20T02:53:22.347Z,75.05
2023-02-20T02:55:50.643Z,74.92
2023-02-20T02:58:19.014Z,75.49
2023-02-20T03:00:51.326Z,76.07
2023-02-20T03:03:25.786Z,75.58
2023-02-20T03:05:59.250Z,75.14
2023-02-20T03:08:43.595Z,75.11
2023-02-20T03:11:21.024Z,74.49
2023-02-20T03:14:34.404Z,75.70
2023-02-20T03:17:22.207Z,74.93
2023-02-20T03:19:55.153Z,74.73
2023-02-20T03:22:29.468Z,72.69
2023-02-20T03:25:06.210Z,73.70
2023-02-20T03:27:48.109Z,72.97
2023-02-20T03:30:19.397Z,71.76
2023-02-20T03:33:11.807Z,71.20
2023-02-20T03:36:00.967Z,71.69
2023-02-20T03:38:50.954Z,72.79
2023-02-20T03:41:37.805Z,70.09
2023-02-20T03:44:08.465Z,71.49
2023-02-20T03:46:40.710Z,69.56
2023-02-20T03:49:14.381Z,69.70
2023-02-20T03:52:00.154Z,71.47
2023-02-20T03:54:54.413Z,69.11
2023-02-20T03:57:39.412Z,67.89
2023-02-20T04:00:14.626Z,67.33
2023-02-20T04:02:54.518Z,67.36
2023-02-20T04:05:35.388Z,69.34
2023-02-20T04:08:10.567Z,68.23
2023-02-20T04:10:46.263Z,68.11
2023-02-20T04:13:17.486Z,66.62
2023-02-20T04:15:50.066Z,67.59
2023-02-20T04:18:20.582Z,67.65
2023-02-20T04:20:53.470Z,66.71
2023-02-20T04:23:34.356Z,68.68
2023-02-20T04:26:06.928Z,69.00
2023-02-20T04:28:37.449Z,70.09
2023-02-20T04:31:08.927Z,68.85
2023-02-20T04:33:43.425Z,68.80
2023-02-20T04:36:17.059Z,67.17
2023-02-20T04:38:45.501Z,66.98
2023-02-20T04:41:15.918Z,67.62
2023-02-20T04:43:43.623Z,68.22
2023-02-20T04:46:11.098Z,67.58
2023-02-20T04:48:39.049Z,69.05
2023-02-20T04:51:07.702Z,70.10
2023-02-20T04:53:37.270Z,67.56
2023-02-20T04:56:05.151Z,66.99
2023-02-20T04:58:37.427Z,67.10
2023-02-20T05:01:14.748Z,66.68
2023-02-20T05:03:47.428Z,66.60
2023-02-20T05:06:15.386Z,64.85
2023-02-20T05:08:44.064Z,64.61
2023-02-20T05:11:17.084Z,65.20
2023-02-20T05:13:45.178Z,66.31
2023-02-20T05:16:14.199Z,66.15
2023-02-20T05:18:41.626Z,65.53
2023-02-20T05:21:49.941Z,67.52
2023-02-20T05:24:17.545Z,64.90
2023-02-20T05:26:46.607Z,64.68
2023-02-20T05:29:14.987Z,65.57
2023-02-20T05:31:43.116Z,66.46
2023-02-20T05:34:10.498Z,65.60
2023-02-20T05:36:38.176Z,67.28
2023-02-20T05:39:07.013Z,67.51
2023-02-20T05:41:34.901Z,66.25
2023-02-20T05:44:02.416Z,67.94
2023-02-20T05:46:30.012Z,65.98
2023-02-20T05:48:57.244Z,66.82
2023-02-20T05:51:27.733Z,69.00
2023-02-20T05:53:56.042Z,66.29
2023-02-20T05:56:25.602Z,67.30
2023-02-20T05:58:52.816Z,66.85
2023-02-20T06:01:28.804Z,67.89
2023-02-20T06:03:56.544Z,67.82
2023-02-20T06:06:24.788Z,66.68
2023-02-20T06:08:53.927Z,67.05
2023-02-20T06:11:21.513Z,68.10
2023-02-20T06:13:50.432Z,68.03
2023-02-20T06:16:26.801Z,66.17
2023-02-20T06:18:57.258Z,65.59
2023-02-20T06:21:25.657Z,67.42
2023-02-20T06:23:54.672Z,65.85
2023-02-20T06:26:23.728Z,68.13
2023-02-20T06:28:53.334Z,65.97
2023-02-20T06:31:26.509Z,65.03
2023-02-20T06:33:54.624Z,66.73
2023-02-20T06:36:26.313Z,65.74
2023-02-20T06:38:57.654Z,64.87
2023-02-20T06:41:30.173Z,64.70
2023-02-20T06:43:57.550Z,63.62
2023-02-20T06:46:25.506Z,63.52
2023-02-20T06:49:00.223Z,65.62
2023-02-20T06:51:34.837Z,64.71
2023-02-20T06:54:03.826Z,63.99
2023-02-20T06:56:33.999Z,64.31
2023-02-20T06:59:04.410Z,62.98
2023-02-20T07:01:41.118Z,64.41
2023-02-20T07:04:17.273Z,63.96
2023-02-20T07:06:44.944Z,64.75
2023-02-20T07:09:12.353Z,62.71
2023-02-20T07:11:40.445Z,63.24
2023-02-20T07:14:08.950Z,63.91
2023-02-20T07:16:37.831Z,63.91
2023-02-20T07:19:05.425Z,63.77
2023-02-20T07:21:33.223Z,64.08
2023-02-20T07:24:00.600Z,63.55
2023-02-20T07:26:30.990Z,62.23
2023-02-20T07:29:03.108Z,63.68
2023-02-20T07:31:30.858Z,62.61
2023-02-20T07:33:58.838Z,63.11
2023-02-20T07:36:26.599Z,61.00
2023-02-20T07:39:02.456Z,63.14
2023-02-20T07:41:36.020Z,61.63
2023-02-20T07:44:07.819Z,60.99
2023-02-20T07:46:35.622Z,59.54
2023-02-20T07:49:05.219Z,59.36
2023-02-20T07:51:34.483Z,59.01
2023-02-20T07:54:02.202Z,58.86
2023-02-20T07:56:30.340Z,58.85
2023-02-20T07:59:00.933Z,55.33
2023-02-20T08:01:29.684Z,52.31
2023-02-20T08:03:57.055Z,48.63
2023-02-20T08:06:24.881Z,47.89
2023-02-20T08:08:52.818Z,45.48
2023-02-20T08:11:23.058Z,47.01
2023-02-20T08:13:55.922Z,45.87
2023-02-20T08:16:23.638Z,43.01
2023-02-20T08:18:51.557Z,42.60
2023-02-20T08:21:19.567Z,41.29
2023-02-20T08:23:47.320Z,41.14
2023-02-20T08:26:15.398Z,44.54
2023-02-20T08:28:43.372Z,46.97
2023-02-20T08:31:15.136Z,49.79
2023-02-20T08:33:50.193Z,48.72
2023-02-20T08:36:19.324Z,49.81
2023-02-20T08:38:47.709Z,49.74
2023-02-20T08:41:15.469Z,51.43
2023-02-20T08:43:44.398Z,52.33
2023-02-20T08:46:13.527Z,52.78
2023-02-20T08:48:43.514Z,52.38
2023-02-20T08:51:11.169Z,51.89
2023-02-20T08:53:39.959Z,51.85
2023-02-20T08:56:08.626Z,51.52
2023-02-20T08:58:38.802Z,51.69
2023-02-20T09:01:06.655Z,52.64
2023-02-20T09:03:35.094Z,51.54
2023-02-20T09:06:02.611Z,50.06
2023-02-20T09:08:29.905Z,52.12
2023-02-20T09:10:59.189Z,50.97
2023-02-20T09:13:26.801Z,50.68
2023-02-20T09:15:54.445Z,50.06
2023-02-20T09:18:23.417Z,49.94
2023-02-20T09:20:53.399Z,49.54
2023-02-20T09:23:24.497Z,48.81
2023-02-20T09:25:53.175Z,48.87
2023-02-20T09:28:22.776Z,51.70
2023-02-20T09:30:54.820Z,50.74
2023-02-20T09:33:25.516Z,50.25
2023-02-20T09:35:54.950Z,49.94
2023-02-20T09:38:26.409Z,49.98
2023-02-20T09:40:59.835Z,49.86
2023-02-20T09:43:33.240Z,49.03
2023-02-20T09:46:14.310Z,48.44
2023-02-20T09:49:06.513Z,47.91
2023-02-20T09:51:38.926Z,48.43
2023-02-20T09:54:14.216Z,46.72
2023-02-20T09:56:48.699Z,48.05
2023-02-20T09:59:25.240Z,48.31
2023-02-20T10:02:36.713Z,48.27
2023-02-20T10:05:15.125Z,48.20
2023-02-20T10:07:43.082Z,47.52
2023-02-20T10:10:28.070Z,47.06
2023-02-20T10:13:07.927Z,47.04
2023-02-20T10:16:01.007Z,47.19
2023-02-20T10:19:14.743Z,46.61
2023-02-20T10:21:56.902Z,48.37
2023-02-20T10:25:06.302Z,46.59
2023-02-20T10:27:57.916Z,45.38
2023-02-20T10:30:40.871Z,45.88
2023-02-20T10:33:31.219Z,46.18
2023-02-20T10:36:17.846Z,46.95
2023-02-20T10:38:58.490Z,46.94
2023-02-20T10:41:44.224Z,47.74
2023-02-20T10:44:18.219Z,44.80
2023-02-20T10:47:13.834Z,44.60
2023-02-20T10:49:58.516Z,42.56
2023-02-20T10:52:36.949Z,40.41
2023-02-20T10:55:16.104Z,39.46
2023-02-20T10:58:05.554Z,40.90
2023-02-20T11:00:39.782Z,40.52
2023-02-20T11:03:11.425Z,40.96
2023-02-20T11:05:48.369Z,41.11
2023-02-20T11:08:21.006Z,41.01
2023-02-20T11:10:55.436Z,40.31
2023-02-20T11:13:26.086Z,40.39
2023-02-20T11:15:56.707Z,41.47
2023-02-20T11:18:35.120Z,43.21
2023-02-20T11:21:05.034Z,41.05
2023-02-20T11:23:35.267Z,41.55
2023-02-20T11:26:20.778Z,40.75
2023-02-20T11:29:03.117Z,40.11
2023-02-20T11:31:31.925Z,40.66
2023-02-20T11:34:03.342Z,39.63
2023-02-20T11:36:46.068Z,41.57
2023-02-20T11:39:33.641Z,42.05
2023-02-20T11:42:19.540Z,41.15
2023-02-20T11:45:18.553Z,40.45
2023-02-20T11:47:45.812Z,41.17
2023-02-20T11:50:19.861Z,40.40
2023-02-20T11:52:59.741Z,38.97
2023-02-20T11:55:29.672Z,39.12
2023-02-20T11:57:57.292Z,39.48
2023-02-20T12:00:27.651Z,38.58
2023-02-20T12:03:10.059Z,38.50
2023-02-20T12:05:39.704Z,38.84
2023-02-20T12:08:49.915Z,38.89
2023-02-20T12:11:21.597Z,41.78
2023-02-20T12:13:50.703Z,40.42
2023-02-20T12:16:18.817Z,40.70
2023-02-20T12:19:14.694Z,39.24
2023-02-20T12:21:48.798Z,38.60
2023-02-20T12:24:54.790Z,39.86
2023-02-20T12:27:25.279Z,40.29
2023-02-20T12:30:17.380Z,39.94
2023-02-20T12:32:44.814Z,39.58
2023-02-20T12:35:18.204Z,39.60
2023-02-20T12:37:58.602Z,40.29
2023-02-20T12:40:59.665Z,39.25
2023-02-20T12:43:44.389Z,40.07
2023-02-20T12:46:32.645Z,40.82
2023-02-20T12:49:10.398Z,41.47
2023-02-20T12:52:04.015Z,42.45
2023-02-20T12:54:46.722Z,41.20
2023-02-20T12:57:23.105Z,42.42
2023-02-20T13:00:01.300Z,41.55
2023-02-20T13:02:42.272Z,41.93
2023-02-20T13:05:19.748Z,41.90
2023-02-20T13:07:56.462Z,40.33
2023-02-20T13:10:27.120Z,40.69
2023-02-20T13:12:54.674Z,40.36
2023-02-20T13:15:49.412Z,41.25
2023-02-20T13:18:21.451Z,41.74
2023-02-20T13:21:04.576Z,41.08
2023-02-20T13:23:35.959Z,41.14
2023-02-20T13:26:24.223Z,41.41
2023-02-20T13:28:53.674Z,42.31
2023-02-20T13:31:24.157Z,42.24
2023-02-20T13:34:06.673Z,41.24
2023-02-20T13:36:45.360Z,42.28
2023-02-20T13:39:41.612Z,42.73
2023-02-20T13:42:28.914Z,42.33
2023-02-20T13:44:57.655Z,42.19
2023-02-20T13:47:32.126Z,42.99
2023-02-20T13:50:01.025Z,43.09
2023-02-20T13:52:44.906Z,43.59
2023-02-20T13:55:13.363Z,43.63
2023-02-20T13:57:57.983Z,45.08
2023-02-20T14:00:42.358Z,43.53
2023-02-20T14:03:31.658Z,43.70
2023-02-20T14:06:05.530Z,42.93
2023-02-20T14:08:33.619Z,43.25
2023-02-20T14:11:34.968Z,44.71
2023-02-20T14:14:24.786Z,45.26
2023-02-20T14:17:03.004Z,45.89
2023-02-20T14:19:31.066Z,44.71
2023-02-20T14:22:19.385Z,44.89
2023-02-20T14:25:08.717Z,45.02
2023-02-20T14:27:36.266Z,46.11
2023-02-20T14:30:23.495Z,45.80
2023-02-20T14:32:54.149Z,45.86
2023-02-20T14:35:53.451Z,45.77
2023-02-20T14:38:47.191Z,45.78
2023-02-20T14:41:20.748Z,45.38
2023-02-20T14:44:02.978Z,45.43
2023-02-20T14:46:35.664Z,46.69
2023-02-20T14:49:17.382Z,47.85
2023-02-20T14:51:46.872Z,46.63
2023-02-20T14:54:15.022Z,47.59
2023-02-20T14:56:43.229Z,48.03
2023-02-20T14:59:24.501Z,48.52
2023-02-20T15:01:56.619Z,48.13
2023-02-20T15:04:26.435Z,48.49
2023-02-20T15:07:01.337Z,49.04
2023-02-20T15:09:38.938Z,48.60
2023-02-20T15:12:09.686Z,49.17
2023-02-20T15:14:42.620Z,49.94
2023-02-20T15:17:13.185Z,49.96
2023-02-20T15:19:42.185Z,49.85
2023-02-20T15:22:32.378Z,50.24
2023-02-20T15:25:26.106Z,50.98
2023-02-20T15:28:14.108Z,49.93
2023-02-20T15:31:00.302Z,50.58
2023-02-20T15:33:29.286Z,50.37
2023-02-20T15:35:56.874Z,50.19
2023-02-20T15:38:28.646Z,50.71
2023-02-20T15:40:58.768Z,51.25
2023-02-20T15:43:45.355Z,51.22
2023-02-20T15:46:15.216Z,51.72
2023-02-20T15:48:44.617Z,52.36
2023-02-20T15:51:14.992Z,52.22
2023-02-20T15:53:46.208Z,52.89
2023-02-20T15:56:14.735Z,53.39
2023-02-20T15:58:43.473Z,53.34
2023-02-20T16:01:11.728Z,53.35
2023-02-20T16:03:51.613Z,54.17
2023-02-20T16:06:22.176Z,54.72
2023-02-20T16:08:52.451Z,54.33
2023-02-20T16:11:25.589Z,53.92
2023-02-20T16:14:01.431Z,54.12
2023-02-20T16:16:47.167Z,54.27
2023-02-20T16:19:17.656Z,55.39
2023-02-20T16:21:58.648Z,55.38
2023-02-20T16:24:27.783Z,54.66
2023-02-20T16:26:55.192Z,54.90
2023-02-20T16:29:31.506Z,56.03
2023-02-20T16:32:01.870Z,56.09
2023-02-20T16:34:32.973Z,56.77
2023-02-20T16:37:01.450Z,56.99
2023-02-20T16:39:32.120Z,57.93
2023-02-20T16:41:59.859Z,57.89
2023-02-20T16:44:40.622Z,58.17
2023-02-20T16:47:17.083Z,58.32
2023-02-20T16:49:47.111Z,58.13
2023-02-20T16:52:20.011Z,58.64
2023-02-20T16:54:49.737Z,59.81
2023-02-20T16:57:18.413Z,58.27
2023-02-20T16:59:47.154Z,58.01
2023-02-20T17:02:20.639Z,57.99
2023-02-20T17:04:49.222Z,58.20
2023-02-20T17:07:18.064Z,58.75
2023-02-20T17:09:46.792Z,58.70
2023-02-20T17:12:18.370Z,59.83
2023-02-20T17:14:47.259Z,59.68
2023-02-20T17:17:16.075Z,60.52
2023-02-20T17:19:44.756Z,60.44
2023-02-20T17:22:16.772Z,60.03
2023-02-20T17:24:47.307Z,60.01
2023-02-20T17:27:15.384Z,60.26
2023-02-20T17:29:46.132Z,61.05
2023-02-20T17:32:18.712Z,59.84
2023-02-20T17:34:52.617Z,61.51
2023-02-20T17:37:45.689Z,61.05
2023-02-20T17:40:43.201Z,61.19
2023-02-20T17:43:32.781Z,62.09
2023-02-20T17:46:00.848Z,61.68
2023-02-20T17:48:29.746Z,62.04
2023-02-20T17:50:56.999Z,62.26
2023-02-20T17:53:24.562Z,63.00
2023-02-20T17:55:52.133Z,63.46
2023-02-20T17:58:20.877Z,64.19
2023-02-20T18:00:48.536Z,63.89
2023-02-20T18:03:18.096Z,64.34
2023-02-20T18:05:45.506Z,64.01
2023-02-20T18:08:16.447Z,64.21
2023-02-20T18:10:45.103Z,64.14
2023-02-20T18:13:12.809Z,64.18
2023-02-20T18:15:43.099Z,64.56
2023-02-20T18:18:14.680Z,65.08
2023-02-20T18:20:43.147Z,65.16
2023-02-20T18:23:12.597Z,65.22
2023-02-20T18:25:43.546Z,65.71
2023-02-20T18:28:11.380Z,66.04
2023-02-20T18:30:39.418Z,66.09
2023-02-20T18:33:08.647Z,66.78
2023-02-20T18:35:36.268Z,66.59
2023-02-20T18:38:06.657Z,66.58
2023-02-20T18:40:37.590Z,66.81
2023-02-20T18:43:09.616Z,66.96
2023-02-20T18:45:38.477Z,66.88
2023-02-20T18:48:11.838Z,67.30
2023-02-20T18:50:39.201Z,67.46
2023-02-20T18:53:06.986Z,67.96
2023-02-20T18:55:36.178Z,68.22
2023-02-20T18:58:05.230Z,67.89
2023-02-20T19:00:34.807Z,68.13
2023-02-20T19:03:03.748Z,67.48
2023-02-20T19:05:32.042Z,66.82
2023-02-20T19:08:00.375Z,66.44
2023-02-20T19:10:27.830Z,65.69
2023-02-20T19:12:55.608Z,65.62
2023-02-20T19:15:25.894Z,65.26
2023-02-20T19:17:54.789Z,64.49
2023-02-20T19:20:28.724Z,63.68
2023-02-20T19:22:59.167Z,63.20
2023-02-20T19:25:26.927Z,62.93
2023-02-20T19:27:55.475Z,62.47
2023-02-20T19:30:24.433Z,62.60
2023-02-20T19:32:52.005Z,62.56
2023-02-20T19:35:19.312Z,62.37
2023-02-20T19:37:47.929Z,62.30
2023-02-20T19:40:15.973Z,62.47
2023-02-20T19:42:43.641Z,62.06
2023-02-20T19:45:12.418Z,62.07
2023-02-20T19:47:40.929Z,61.98
2023-02-20T19:50:08.481Z,62.41
2023-02-20T19:52:35.987Z,62.71
2023-02-20T19:55:05.442Z,62.10
2023-02-20T19:57:32.989Z,61.96
2023-02-20T20:00:00.164Z,60.97
2023-02-20T20:02:27.648Z,60.86
2023-02-20T20:04:55.468Z,60.31
2023-02-20T20:07:23.033Z,60.58
2023-02-20T20:09:50.752Z,60.84
2023-02-20T20:12:36.850Z,60.63
2023-02-20T20:15:05.867Z,60.61
2023-02-20T20:17:35.143Z,60.74
2023-02-20T20:20:02.720Z,60.39
2023-02-20T20:22:34.739Z,60.25
2023-02-20T20:25:05.277Z,60.27
2023-02-20T20:27:32.988Z,59.53
2023-02-20T20:30:00.249Z,59.56
2023-02-20T20:32:27.722Z,59.41
2023-02-20T20:34:55.829Z,59.59
2023-02-20T20:37:25.058Z,58.99
2023-02-20T20:39:53.154Z,59.10
2023-02-20T20:42:25.245Z,59.07
2023-02-20T20:44:57.957Z,59.11
2023-02-20T20:47:28.822Z,58.70
2023-02-20T20:49:56.785Z,58.01
2023-02-20T20:52:26.758Z,58.05
2023-02-20T20:54:56.728Z,58.03
2023-02-20T20:57:27.192Z,57.93
2023-02-20T20:59:56.049Z,57.46
2023-02-20T21:02:23.979Z,58.20
2023-02-20T21:04:57.969Z,58.04
2023-02-20T21:08:15.639Z,57.40
2023-02-20T21:11:22.801Z,57.27
2023-02-20T21:13:50.476Z,57.63
2023-02-20T21:16:18.898Z,57.56
2023-02-20T21:18:46.848Z,57.82
2023-02-20T21:21:14.635Z,57.36
2023-02-20T21:23:45.543Z,57.58
2023-02-20T21:26:13.447Z,57.29
2023-02-20T21:28:42.095Z,57.75
2023-02-20T21:31:09.500Z,58.25
2023-02-20T21:34:05.157Z,58.36
2023-02-20T21:36:32.925Z,58.62
2023-02-20T21:39:00.496Z,59.18
2023-02-20T21:41:47.103Z,58.34
2023-02-20T21:44:28.288Z,58.76
2023-02-20T21:47:02.654Z,58.42
2023-02-20T21:49:32.578Z,58.53
2023-02-20T21:52:01.580Z,58.71
2023-02-20T21:54:32.707Z,58.97
2023-02-20T21:57:00.849Z,57.80
2023-02-20T21:59:35.847Z,58.11
2023-02-20T22:02:03.341Z,57.81
2023-02-20T22:04:31.019Z,58.04
2023-02-20T22:07:16.790Z,57.68
2023-02-20T22:10:02.825Z,58.25
2023-02-20T22:12:48.442Z,58.02
2023-02-20T22:15:34.492Z,57.66
2023-02-20T22:18:20.270Z,58.36
2023-02-20T22:21:06.594Z,57.87
2023-02-20T22:23:52.411Z,57.68
2023-02-20T22:26:38.493Z,57.60
2023-02-20T22:29:25.398Z,58.33
2023-02-20T22:32:11.491Z,58.23
2023-02-20T22:35:09.580Z,57.93
2023-02-20T22:37:57.585Z,58.25
2023-02-20T22:40:43.617Z,58.39
2023-02-20T22:43:29.775Z,58.22
2023-02-20T22:46:15.619Z,58.30
2023-02-20T22:49:01.731Z,57.95
2023-02-20T22:51:47.602Z,57.91
2023-02-20T22:54:33.673Z,57.40
2023-02-20T22:57:20.454Z,57.76
2023-02-20T23:00:07.598Z,58.00
2023-02-20T23:02:55.580Z,58.24
2023-02-20T23:05:42.479Z,58.53
2023-02-20T23:08:28.514Z,57.59
2023-02-20T23:11:14.989Z,57.75
2023-02-20T23:14:01.002Z,58.44
2023-02-20T23:16:46.942Z,58.22
2023-02-20T23:19:32.696Z,58.32
2023-02-20T23:22:19.182Z,57.67
2023-02-20T23:25:04.869Z,57.52
2023-02-20T23:27:51.374Z,57.13
2023-02-20T23:30:37.599Z,57.34
2023-02-20T23:33:23.954Z,57.29
2023-02-20T23:36:10.193Z,57.13
2023-02-20T23:38:56.345Z,57.90
2023-02-20T23:41:42.123Z,57.84
2023-02-20T23:44:29.502Z,57.87
2023-02-20T23:47:15.398Z,58.84
2023-02-20T23:50:05.780Z,58.46
2023-02-20T23:52:54.031Z,57.66
2023-02-20T23:55:40.290Z,58.15
2023-02-20T23:58:26.078Z,57.93
